sensor_id;sensor_type;location;lat;lon;timestamp;pressure;altitude;pressure_sealevel;temperature;humidity
77626;BME280;66794;43.764;10.436;2023-12-04T00:00:27;74987.00;;;17.30;nan
77626;BME280;66794;43.764;10.436;2023-12-04T00:03:13;74853.34;;;16.65;nan
77626;BME280;66794;43.764;10.436;2023-12-04T00:05:58;74941.13;;;17.01;nan
77626;BME280;66794;43.764;10.436;2023-12-04T00:08:44;74969.47;;;16.38;nan
77626;BME280;66794;43.764;10.436;2023-12-04T00:11:30;74384.44;;;15.39;nan
77626;BME280;66794;43.764;10.436;2023-12-04T00:14:16;74773.16;;;16.73;nan
77626;BME280;66794;43.764;10.436;2023-12-04T00:17:02;74544.22;;;15.32;nan
77626;BME280;66794;43.764;10.436;2023-12-04T00:19:47;74621.94;;;15.27;nan
77626;BME280;66794;43.764;10.436;2023-12-04T00:22:33;74848.97;;;15.84;nan
77626;BME280;66794;43.764;10.436;2023-12-04T00:25:19;74751.50;;;16.09;nan
77626;BME280;66794;43.764;10.436;2023-12-04T00:28:05;74492.88;;;13.64;nan
77626;BME280;66794;43.764;10.436;2023-12-04T00:30:50;75626.84;;;14.94;nan
77626;BME280;66794;43.764;10.436;2023-12-04T00:33:36;74832.09;;;15.77;nan
77626;BME280;66794;43.764;10.436;2023-12-04T00:36:22;74517.91;;;15.82;nan
77626;BME280;66794;43.764;10.436;2023-12-04T00:39:08;74743.59;;;16.07;nan
77626;BME280;66794;43.764;10.436;2023-12-04T00:41:53;74767.78;;;16.15;nan
77626;BME280;66794;43.764;10.436;2023-12-04T00:44:39;74825.00;;;16.51;nan
77626;BME280;66794;43.764;10.436;2023-12-04T00:47:25;74565.97;;;14.28;nan
77626;BME280;66794;43.764;10.436;2023-12-04T00:50:11;75283.16;;;15.65;nan
77626;BME280;66794;43.764;10.436;2023-12-04T00:52:56;75086.41;;;15.68;nan
77626;BME280;66794;43.764;10.436;2023-12-04T00:55:42;75155.50;;;15.95;nan
77626;BME280;66794;43.764;10.436;2023-12-04T00:58:28;75039.59;;;15.34;nan
77626;BME280;66794;43.764;10.436;2023-12-04T01:01:13;75127.75;;;14.63;nan
77626;BME280;66794;43.764;10.436;2023-12-04T01:03:59;75068.69;;;14.72;nan
77626;BME280;66794;43.764;10.436;2023-12-04T01:06:46;75174.31;;;14.57;nan
77626;BME280;66794;43.764;10.436;2023-12-04T01:09:35;75663.47;;;14.93;nan
77626;BME280;66794;43.764;10.436;2023-12-04T01:12:21;75840.25;;;15.31;nan
77626;BME280;66794;43.764;10.436;2023-12-04T01:15:07;75374.03;;;14.91;nan
77626;BME280;66794;43.764;10.436;2023-12-04T01:17:53;75840.81;;;15.01;nan
77626;BME280;66794;43.764;10.436;2023-12-04T01:20:39;75335.22;;;14.42;nan
77626;BME280;66794;43.764;10.436;2023-12-04T01:23:25;76054.88;;;14.58;nan
77626;BME280;66794;43.764;10.436;2023-12-04T01:26:10;75730.00;;;15.60;nan
77626;BME280;66794;43.764;10.436;2023-12-04T01:28:57;75040.72;;;14.95;nan
77626;BME280;66794;43.764;10.436;2023-12-04T01:31:43;75080.84;;;15.28;nan
77626;BME280;66794;43.764;10.436;2023-12-04T01:34:29;75308.78;;;15.94;nan
77626;BME280;66794;43.764;10.436;2023-12-04T01:37:14;75076.63;;;15.77;nan
77626;BME280;66794;43.764;10.436;2023-12-04T01:40:00;74762.78;;;15.07;nan
77626;BME280;66794;43.764;10.436;2023-12-04T01:42:46;74940.88;;;15.33;nan
77626;BME280;66794;43.764;10.436;2023-12-04T01:45:32;75119.72;;;14.19;nan
77626;BME280;66794;43.764;10.436;2023-12-04T01:48:18;75487.63;;;13.62;nan
77626;BME280;66794;43.764;10.436;2023-12-04T01:51:07;75473.13;;;13.51;nan
77626;BME280;66794;43.764;10.436;2023-12-04T01:53:53;75840.78;;;13.88;nan
77626;BME280;66794;43.764;10.436;2023-12-04T01:56:41;76208.72;;;13.47;nan
77626;BME280;66794;43.764;10.436;2023-12-04T01:59:27;76110.91;;;13.81;nan
77626;BME280;66794;43.764;10.436;2023-12-04T02:02:13;76125.53;;;14.54;nan
77626;BME280;66794;43.764;10.436;2023-12-04T02:04:59;75881.78;;;13.99;nan
77626;BME280;66794;43.764;10.436;2023-12-04T02:07:45;76085.34;;;14.82;nan
77626;BME280;66794;43.764;10.436;2023-12-04T02:10:31;75569.13;;;14.59;nan
77626;BME280;66794;43.764;10.436;2023-12-04T02:13:17;75588.09;;;15.26;nan
77626;BME280;66794;43.764;10.436;2023-12-04T02:16:05;75617.75;;;15.50;nan
77626;BME280;66794;43.764;10.436;2023-12-04T02:18:54;75625.47;;;15.85;nan
77626;BME280;66794;43.764;10.436;2023-12-04T02:21:40;75395.84;;;14.89;nan
77626;BME280;66794;43.764;10.436;2023-12-04T02:24:26;75539.78;;;14.31;nan
77626;BME280;66794;43.764;10.436;2023-12-04T02:27:18;75978.66;;;14.46;nan
77626;BME280;66794;43.764;10.436;2023-12-04T02:30:08;75676.50;;;15.98;nan
77626;BME280;66794;43.764;10.436;2023-12-04T02:32:58;75314.78;;;15.03;nan
77626;BME280;66794;43.764;10.436;2023-12-04T02:35:44;75298.34;;;15.05;nan
77626;BME280;66794;43.764;10.436;2023-12-04T02:38:31;75257.78;;;14.61;nan
77626;BME280;66794;43.764;10.436;2023-12-04T02:41:17;74794.41;;;14.82;nan
77626;BME280;66794;43.764;10.436;2023-12-04T02:44:03;74777.84;;;15.90;nan
77626;BME280;66794;43.764;10.436;2023-12-04T02:46:49;75095.84;;;15.95;nan
77626;BME280;66794;43.764;10.436;2023-12-04T02:49:35;74986.00;;;15.15;nan
77626;BME280;66794;43.764;10.436;2023-12-04T02:52:20;75229.41;;;16.16;nan
77626;BME280;66794;43.764;10.436;2023-12-04T02:55:07;74742.78;;;14.97;nan
77626;BME280;66794;43.764;10.436;2023-12-04T02:57:52;75008.50;;;14.58;nan
77626;BME280;66794;43.764;10.436;2023-12-04T03:00:38;75143.78;;;15.84;nan
77626;BME280;66794;43.764;10.436;2023-12-04T03:03:24;75099.44;;;14.97;nan
77626;BME280;66794;43.764;10.436;2023-12-04T03:06:10;74900.44;;;15.31;nan
77626;BME280;66794;43.764;10.436;2023-12-04T03:08:58;75165.53;;;15.13;nan
77626;BME280;66794;43.764;10.436;2023-12-04T03:11:44;75078.78;;;13.94;nan
77626;BME280;66794;43.764;10.436;2023-12-04T03:14:30;75037.09;;;13.28;nan
77626;BME280;66794;43.764;10.436;2023-12-04T03:17:16;74714.38;;;12.17;nan
77626;BME280;66794;43.764;10.436;2023-12-04T03:20:01;75693.94;;;13.18;nan
77626;BME280;66794;43.764;10.436;2023-12-04T03:22:47;75192.34;;;12.59;nan
77626;BME280;66794;43.764;10.436;2023-12-04T03:25:33;75329.91;;;11.22;nan
77626;BME280;66794;43.764;10.436;2023-12-04T03:28:19;75765.19;;;11.84;nan
77626;BME280;66794;43.764;10.436;2023-12-04T03:31:05;75783.28;;;13.39;nan
77626;BME280;66794;43.764;10.436;2023-12-04T03:33:51;76091.66;;;14.11;nan
77626;BME280;66794;43.764;10.436;2023-12-04T03:36:37;75568.44;;;13.25;nan
77626;BME280;66794;43.764;10.436;2023-12-04T03:39:22;75880.25;;;13.76;nan
77626;BME280;66794;43.764;10.436;2023-12-04T03:42:08;73380.53;;;11.67;nan
77626;BME280;66794;43.764;10.436;2023-12-04T03:44:54;74615.06;;;13.03;nan
77626;BME280;66794;43.764;10.436;2023-12-04T03:47:39;74247.31;;;13.11;nan
77626;BME280;66794;43.764;10.436;2023-12-04T03:50:25;73489.63;;;12.84;nan
77626;BME280;66794;43.764;10.436;2023-12-04T03:53:11;74302.97;;;13.72;nan
77626;BME280;66794;43.764;10.436;2023-12-04T03:55:58;73127.19;;;13.22;nan
77626;BME280;66794;43.764;10.436;2023-12-04T03:58:44;72751.16;;;12.98;nan
77626;BME280;66794;43.764;10.436;2023-12-04T04:01:29;72550.91;;;13.09;nan
77626;BME280;66794;43.764;10.436;2023-12-04T04:04:15;71688.06;;;12.86;nan
77626;BME280;66794;43.764;10.436;2023-12-04T04:07:01;72165.69;;;13.16;nan
77626;BME280;66794;43.764;10.436;2023-12-04T04:09:47;71847.44;;;13.02;nan
77626;BME280;66794;43.764;10.436;2023-12-04T04:12:32;71567.66;;;12.98;nan
77626;BME280;66794;43.764;10.436;2023-12-04T04:15:18;72601.19;;;13.62;nan
77626;BME280;66794;43.764;10.436;2023-12-04T04:18:04;70775.69;;;12.92;nan
77626;BME280;66794;43.764;10.436;2023-12-04T04:20:50;71005.91;;;12.93;nan
77626;BME280;66794;43.764;10.436;2023-12-04T04:23:36;67302.22;;;12.51;nan
77626;BME280;66794;43.764;10.436;2023-12-04T04:26:21;69429.28;;;12.92;nan
77626;BME280;66794;43.764;10.436;2023-12-04T04:29:07;68187.81;;;12.58;nan
77626;BME280;66794;43.764;10.436;2023-12-04T04:31:53;67058.47;;;12.74;nan
77626;BME280;66794;43.764;10.436;2023-12-04T04:34:39;67882.34;;;13.08;nan
77626;BME280;66794;43.764;10.436;2023-12-04T04:37:25;66215.44;;;12.46;nan
77626;BME280;66794;43.764;10.436;2023-12-04T04:40:11;68491.47;;;12.99;nan
77626;BME280;66794;43.764;10.436;2023-12-04T04:42:57;67975.63;;;13.09;nan
77626;BME280;66794;43.764;10.436;2023-12-04T04:45:43;69611.94;;;13.55;nan
77626;BME280;66794;43.764;10.436;2023-12-04T04:48:29;64073.56;;;12.18;nan
77626;BME280;66794;43.764;10.436;2023-12-04T04:51:15;68986.66;;;13.65;nan
77626;BME280;66794;43.764;10.436;2023-12-04T04:54:01;72297.00;;;13.81;nan
77626;BME280;66794;43.764;10.436;2023-12-04T04:56:47;64564.31;;;12.50;nan
77626;BME280;66794;43.764;10.436;2023-12-04T04:59:32;63075.09;;;12.47;nan
77626;BME280;66794;43.764;10.436;2023-12-04T05:02:18;68089.50;;;13.75;nan
77626;BME280;66794;43.764;10.436;2023-12-04T05:05:06;35476.09;;;11.21;nan
77626;BME280;66794;43.764;10.436;2023-12-04T05:07:51;53642.41;;;13.20;nan
77626;BME280;66794;43.764;10.436;2023-12-04T05:10:40;62566.66;;;13.56;nan
77626;BME280;66794;43.764;10.436;2023-12-04T05:13:26;58053.63;;;13.16;nan
77626;BME280;66794;43.764;10.436;2023-12-04T05:16:12;44079.16;;;12.34;nan
77626;BME280;66794;43.764;10.436;2023-12-04T05:18:58;16451.75;;;10.62;nan
77626;BME280;66794;43.764;10.436;2023-12-04T05:21:44;12742.28;;;10.97;nan
77626;BME280;66794;43.764;10.436;2023-12-04T05:24:30;9027.38;;;11.00;nan
77626;BME280;66794;43.764;10.436;2023-12-04T05:27:16;9709.44;;;11.39;nan
77626;BME280;66794;43.764;10.436;2023-12-04T05:30:02;16831.94;;;12.07;nan
77626;BME280;66794;43.764;10.436;2023-12-04T05:32:47;26382.66;;;13.11;nan
77626;BME280;66794;43.764;10.436;2023-12-04T05:35:33;8362.84;;;11.68;nan
77626;BME280;66794;43.764;10.436;2023-12-04T05:38:19;18208.56;;;12.73;nan
77626;BME280;66794;43.764;10.436;2023-12-04T05:41:05;21973.19;;;13.49;nan
77626;BME280;66794;43.764;10.436;2023-12-04T05:43:51;18549.66;;;12.78;nan
77626;BME280;66794;43.764;10.436;2023-12-04T05:46:36;28096.41;;;13.34;nan
77626;BME280;66794;43.764;10.436;2023-12-04T05:49:22;16858.59;;;12.99;nan
77626;BME280;66794;43.764;10.436;2023-12-04T05:52:08;16491.09;;;12.00;nan
77626;BME280;66794;43.764;10.436;2023-12-04T05:54:54;2960.50;;;11.58;nan
77626;BME280;66794;43.764;10.436;2023-12-04T05:57:40;9731.94;;;12.66;nan
77626;BME280;66794;43.764;10.436;2023-12-04T06:00:26;15497.91;;;12.87;nan
77626;BME280;66794;43.764;10.436;2023-12-04T06:03:12;9732.91;;;12.72;nan
77626;BME280;66794;43.764;10.436;2023-12-04T06:05:57;13460.59;;;12.77;nan
77626;BME280;66794;43.764;10.436;2023-12-04T06:08:43;10062.13;;;12.20;nan
77626;BME280;66794;43.764;10.436;2023-12-04T06:11:29;11077.19;;;12.20;nan
77626;BME280;66794;43.764;10.436;2023-12-04T06:14:14;5323.81;;;11.73;nan
77626;BME280;66794;43.764;10.436;2023-12-04T06:17:00;5330.91;;;12.40;nan
77626;BME280;66794;43.764;10.436;2023-12-04T06:19:47;9398.22;;;12.94;nan
77626;BME280;66794;43.764;10.436;2023-12-04T06:22:33;14477.47;;;12.76;nan
77626;BME280;66794;43.764;10.436;2023-12-04T06:25:19;15829.63;;;12.59;nan
77626;BME280;66794;43.764;10.436;2023-12-04T06:28:05;9388.41;;;12.37;nan
77626;BME280;66794;43.764;10.436;2023-12-04T06:30:51;10741.63;;;12.34;nan
77626;BME280;66794;43.764;10.436;2023-12-04T06:33:37;9046.53;;;12.16;nan
77626;BME280;66794;43.764;10.436;2023-12-04T06:36:24;12451.19;;;13.10;nan
77626;BME280;66794;43.764;10.436;2023-12-04T06:39:12;15502.44;;;13.04;nan
77626;BME280;66794;43.764;10.436;2023-12-04T06:41:59;8369.56;;;12.11;nan
77626;BME280;66794;43.764;10.436;2023-12-04T06:44:45;13801.81;;;12.86;nan
77626;BME280;66794;43.764;10.436;2023-12-04T06:47:31;6677.25;;;11.95;nan
77626;BME280;66794;43.764;10.436;2023-12-04T06:50:17;6680.00;;;12.16;nan
77626;BME280;66794;43.764;10.436;2023-12-04T06:53:03;8030.63;;;12.06;nan
77626;BME280;66794;43.764;10.436;2023-12-04T06:55:48;4649.22;;;11.78;nan
77626;BME280;66794;43.764;10.436;2023-12-04T06:58:34;-5474.38;;;13.69;nan
77626;BME280;66794;43.764;10.436;2023-12-04T07:01:20;-7497.94;;;13.59;nan
77626;BME280;66794;43.764;10.436;2023-12-04T07:04:07;-9166.66;;;12.21;nan
77626;BME280;66794;43.764;10.436;2023-12-04T07:06:55;-9174.53;;;12.84;nan
77626;BME280;66794;43.764;10.436;2023-12-04T07:09:41;-21494.88;;;19.79;nan
77626;BME280;66794;43.764;10.436;2023-12-04T07:12:27;-6826.28;;;13.93;nan
77626;BME280;66794;43.764;10.436;2023-12-04T07:15:13;-9512.69;;;12.95;nan
77626;BME280;66794;43.764;10.436;2023-12-04T07:17:58;-11862.66;;;12.58;nan
77626;BME280;66794;43.764;10.436;2023-12-04T07:20:44;-11538.09;;;13.30;nan
77626;BME280;66794;43.764;10.436;2023-12-04T07:23:30;-9513.81;;;13.04;nan
77626;BME280;66794;43.764;10.436;2023-12-04T07:26:15;-12873.13;;;12.68;nan
77626;BME280;66794;43.764;10.436;2023-12-04T07:29:02;-13544.53;;;12.62;nan
77626;BME280;66794;43.764;10.436;2023-12-04T07:31:48;-13881.16;;;12.65;nan
77626;BME280;66794;43.764;10.436;2023-12-04T07:34:33;-13210.22;;;12.72;nan
77626;BME280;66794;43.764;10.436;2023-12-04T07:37:19;-12868.34;;;12.42;nan
77626;BME280;66794;43.764;10.436;2023-12-04T07:40:05;-10195.59;;;13.63;nan
77626;BME280;66794;43.764;10.436;2023-12-04T07:42:53;-5811.09;;;13.58;nan
77626;BME280;66794;43.764;10.436;2023-12-04T07:45:39;4672.28;;;14.19;nan
77626;BME280;66794;43.764;10.436;2023-12-04T07:48:25;2977.16;;;14.00;nan
77626;BME280;66794;43.764;10.436;2023-12-04T07:51:11;1964.25;;;14.51;nan
77626;BME280;66794;43.764;10.436;2023-12-04T07:53:56;-1421.41;;;14.20;nan
77626;BME280;66794;43.764;10.436;2023-12-04T07:56:42;10100.56;;;14.31;nan
77626;BME280;66794;43.764;10.436;2023-12-04T07:59:28;-1082.66;;;15.29;nan
77626;BME280;66794;43.764;10.436;2023-12-04T08:02:14;-1759.59;;;14.15;nan
77626;BME280;66794;43.764;10.436;2023-12-04T08:04:59;1287.50;;;14.66;nan
77626;BME280;66794;43.764;10.436;2023-12-04T08:07:45;8060.03;;;14.02;nan
77626;BME280;66794;43.764;10.436;2023-12-04T08:10:31;12490.16;;;14.87;nan
77626;BME280;66794;43.764;10.436;2023-12-04T08:13:17;7042.66;;;14.01;nan
77626;BME280;66794;43.764;10.436;2023-12-04T08:16:03;13504.56;;;14.62;nan
77626;BME280;66794;43.764;10.436;2023-12-04T08:18:48;19970.84;;;14.62;nan
77626;BME280;66794;43.764;10.436;2023-12-04T08:21:34;15884.56;;;14.59;nan
77626;BME280;66794;43.764;10.436;2023-12-04T08:24:20;12156.97;;;15.18;nan
77626;BME280;66794;43.764;10.436;2023-12-04T08:27:06;10122.53;;;15.50;nan
77626;BME280;66794;43.764;10.436;2023-12-04T08:29:53;18304.78;;;15.80;nan
77626;BME280;66794;43.764;10.436;2023-12-04T08:32:39;13866.28;;;15.51;nan
77626;BME280;66794;43.764;10.436;2023-12-04T08:35:24;17283.53;;;15.86;nan
77626;BME280;66794;43.764;10.436;2023-12-04T08:38:10;1967.31;;;15.08;nan
77626;BME280;66794;43.764;10.436;2023-12-04T08:40:56;3666.97;;;15.57;nan
77626;BME280;66794;43.764;10.436;2023-12-04T08:43:41;10128.34;;;15.82;nan
77626;BME280;66794;43.764;10.436;2023-12-04T08:46:27;2304.75;;;14.80;nan
77626;BME280;66794;43.764;10.436;2023-12-04T08:49:13;-3112.84;;;14.45;nan
77626;BME280;66794;43.764;10.436;2023-12-04T08:51:59;6378.91;;;15.15;nan
77626;BME280;66794;43.764;10.436;2023-12-04T08:54:45;14222.81;;;16.16;nan
77626;BME280;66794;43.764;10.436;2023-12-04T08:57:31;19312.63;;;15.32;nan
77626;BME280;66794;43.764;10.436;2023-12-04T09:00:16;14537.16;;;15.11;nan
77626;BME280;66794;43.764;10.436;2023-12-04T09:03:02;8422.19;;;15.49;nan
77626;BME280;66794;43.764;10.436;2023-12-04T09:05:48;4344.53;;;15.40;nan
77626;BME280;66794;43.764;10.436;2023-12-04T09:08:37;12864.22;;;16.37;nan
77626;BME280;66794;43.764;10.436;2023-12-04T09:11:25;57684.13;;;16.01;nan
77626;BME280;66794;43.764;10.436;2023-12-04T09:14:11;65291.31;;;16.01;nan
77626;BME280;66794;43.764;10.436;2023-12-04T09:16:57;67578.97;;;16.08;nan
77626;BME280;66794;43.764;10.436;2023-12-04T09:19:43;70609.41;;;15.95;nan
77626;BME280;66794;43.764;10.436;2023-12-04T09:22:28;71247.56;;;16.34;nan
77626;BME280;66794;43.764;10.436;2023-12-04T09:25:14;71977.00;;;16.76;nan
77626;BME280;66794;43.764;10.436;2023-12-04T09:28:00;73480.09;;;17.42;nan
77626;BME280;66794;43.764;10.436;2023-12-04T09:30:48;71862.31;;;17.42;nan
77626;BME280;66794;43.764;10.436;2023-12-04T09:33:34;71956.78;;;17.32;nan
77626;BME280;66794;43.764;10.436;2023-12-04T09:36:21;73375.31;;;17.95;nan
77626;BME280;66794;43.764;10.436;2023-12-04T09:39:07;69611.31;;;17.77;nan
77626;BME280;66794;43.764;10.436;2023-12-04T09:41:53;53988.84;;;17.81;nan
77626;BME280;66794;43.764;10.436;2023-12-04T09:44:39;27581.94;;;16.96;nan
77626;BME280;66794;43.764;10.436;2023-12-04T09:47:26;44488.00;;;17.49;nan
77626;BME280;66794;43.764;10.436;2023-12-04T09:50:11;36485.56;;;16.65;nan
77626;BME280;66794;43.764;10.436;2023-12-04T09:52:59;71293.75;;;16.88;nan
77626;BME280;66794;43.764;10.436;2023-12-04T09:55:49;73094.44;;;16.30;nan
77626;BME280;66794;43.764;10.436;2023-12-04T09:58:37;72788.16;;;16.35;nan
77626;BME280;66794;43.764;10.436;2023-12-04T10:01:26;73730.41;;;16.56;nan
77626;BME280;66794;43.764;10.436;2023-12-04T10:04:13;73978.78;;;17.00;nan
77626;BME280;66794;43.764;10.436;2023-12-04T10:06:59;73926.59;;;16.66;nan
77626;BME280;66794;43.764;10.436;2023-12-04T10:09:45;74287.66;;;17.00;nan
77626;BME280;66794;43.764;10.436;2023-12-04T10:12:32;74298.38;;;17.24;nan
77626;BME280;66794;43.764;10.436;2023-12-04T10:15:19;74349.31;;;17.13;nan
77626;BME280;66794;43.764;10.436;2023-12-04T10:18:05;74428.25;;;17.28;nan
77626;BME280;66794;43.764;10.436;2023-12-04T10:20:54;75364.16;;;17.89;nan
77626;BME280;66794;43.764;10.436;2023-12-04T10:23:41;75450.13;;;17.93;nan
77626;BME280;66794;43.764;10.436;2023-12-04T10:26:27;73890.31;;;16.63;nan
77626;BME280;66794;43.764;10.436;2023-12-04T10:29:13;75337.94;;;17.66;nan
77626;BME280;66794;43.764;10.436;2023-12-04T10:31:59;74092.34;;;16.64;nan
77626;BME280;66794;43.764;10.436;2023-12-04T10:34:46;72470.78;;;15.89;nan
77626;BME280;66794;43.764;10.436;2023-12-04T10:37:31;73142.44;;;16.37;nan
77626;BME280;66794;43.764;10.436;2023-12-04T10:40:27;73471.16;;;16.53;nan
77626;BME280;66794;43.764;10.436;2023-12-04T10:43:17;74991.59;;;17.31;nan
77626;BME280;66794;43.764;10.436;2023-12-04T10:46:03;73001.56;;;15.80;nan
77626;BME280;66794;43.764;10.436;2023-12-04T10:48:49;72976.97;;;16.07;nan
77626;BME280;66794;43.764;10.436;2023-12-04T10:51:34;72047.94;;;15.45;nan
77626;BME280;66794;43.764;10.436;2023-12-04T10:54:21;71947.50;;;15.43;nan
77626;BME280;66794;43.764;10.436;2023-12-04T10:57:08;72851.34;;;15.54;nan
77626;BME280;66794;43.764;10.436;2023-12-04T11:00:02;73839.06;;;15.94;nan
77626;BME280;66794;43.764;10.436;2023-12-04T11:02:49;74077.63;;;16.16;nan
77626;BME280;66794;43.764;10.436;2023-12-04T11:05:40;74939.38;;;16.47;nan
77626;BME280;66794;43.764;10.436;2023-12-04T11:08:29;74533.06;;;15.92;nan
77626;BME280;66794;43.764;10.436;2023-12-04T11:11:30;74868.09;;;16.22;nan
77626;BME280;66794;43.764;10.436;2023-12-04T11:14:20;74807.59;;;16.17;nan
77626;BME280;66794;43.764;10.436;2023-12-04T11:17:10;75720.00;;;17.07;nan
77626;BME280;66794;43.764;10.436;2023-12-04T11:20:10;75482.56;;;16.91;nan
77626;BME280;66794;43.764;10.436;2023-12-04T11:22:59;75444.22;;;16.73;nan
77626;BME280;66794;43.764;10.436;2023-12-04T11:25:46;74867.28;;;16.03;nan
77626;BME280;66794;43.764;10.436;2023-12-04T11:28:33;75340.72;;;16.42;nan
77626;BME280;66794;43.764;10.436;2023-12-04T11:31:20;75585.53;;;16.65;nan
77626;BME280;66794;43.764;10.436;2023-12-04T11:34:08;75659.44;;;16.87;nan
77626;BME280;66794;43.764;10.436;2023-12-04T11:36:55;74941.53;;;15.93;nan
77626;BME280;66794;43.764;10.436;2023-12-04T11:39:46;75344.19;;;16.27;nan
77626;BME280;66794;43.764;10.436;2023-12-04T11:42:33;75500.38;;;16.40;nan
77626;BME280;66794;43.764;10.436;2023-12-04T11:45:20;75139.84;;;15.89;nan
77626;BME280;66794;43.764;10.436;2023-12-04T11:48:09;74964.03;;;15.65;nan
77626;BME280;66794;43.764;10.436;2023-12-04T11:50:56;75466.69;;;16.30;nan
77626;BME280;66794;43.764;10.436;2023-12-04T11:53:44;75564.69;;;16.19;nan
77626;BME280;66794;43.764;10.436;2023-12-04T11:56:30;75491.56;;;16.04;nan
77626;BME280;66794;43.764;10.436;2023-12-04T11:59:16;75102.06;;;15.74;nan
77626;BME280;66794;43.764;10.436;2023-12-04T12:02:02;76471.31;;;17.22;nan
77626;BME280;66794;43.764;10.436;2023-12-04T12:04:48;76620.31;;;17.11;nan
77626;BME280;66794;43.764;10.436;2023-12-04T12:07:34;76686.81;;;17.03;nan
77626;BME280;66794;43.764;10.436;2023-12-04T12:10:21;77300.28;;;17.41;nan
77626;BME280;66794;43.764;10.436;2023-12-04T12:13:07;77452.50;;;17.52;nan
77626;BME280;66794;43.764;10.436;2023-12-04T12:15:52;77152.66;;;17.15;nan
77626;BME280;66794;43.764;10.436;2023-12-04T12:18:40;70615.03;;;15.18;nan
77626;BME280;66794;43.764;10.436;2023-12-04T12:21:28;59546.88;;;16.54;nan
77626;BME280;66794;43.764;10.436;2023-12-04T12:24:13;58892.78;;;16.65;nan
77626;BME280;66794;43.764;10.436;2023-12-04T12:26:59;60917.72;;;16.64;nan
77626;BME280;66794;43.764;10.436;2023-12-04T12:29:45;65483.56;;;16.74;nan
77626;BME280;66794;43.764;10.436;2023-12-04T12:32:31;63546.88;;;16.34;nan
77626;BME280;66794;43.764;10.436;2023-12-04T12:35:17;55336.84;;;15.70;nan
77626;BME280;66794;43.764;10.436;2023-12-04T12:38:03;56466.97;;;15.83;nan
77626;BME280;66794;43.764;10.436;2023-12-04T12:40:48;57416.63;;;15.86;nan
77626;BME280;66794;43.764;10.436;2023-12-04T12:43:34;48758.94;;;15.17;nan
77626;BME280;66794;43.764;10.436;2023-12-04T12:46:21;47862.09;;;15.92;nan
77626;BME280;66794;43.764;10.436;2023-12-04T12:49:07;66885.06;;;15.85;nan
77626;BME280;66794;43.764;10.436;2023-12-04T12:51:54;65581.97;;;15.85;nan
77626;BME280;66794;43.764;10.436;2023-12-04T12:54:41;77120.31;;;17.67;nan
77626;BME280;66794;43.764;10.436;2023-12-04T12:57:27;68332.09;;;17.40;nan
77626;BME280;66794;43.764;10.436;2023-12-04T13:00:13;79250.16;;;18.14;nan
77626;BME280;66794;43.764;10.436;2023-12-04T13:02:59;72803.53;;;17.00;nan
77626;BME280;66794;43.764;10.436;2023-12-04T13:05:46;76190.50;;;17.17;nan
77626;BME280;66794;43.764;10.436;2023-12-04T13:08:32;76545.91;;;16.64;nan
77626;BME280;66794;43.764;10.436;2023-12-04T13:11:17;76524.19;;;16.55;nan
77626;BME280;66794;43.764;10.436;2023-12-04T13:14:04;68518.56;;;18.14;nan
77626;BME280;66794;43.764;10.436;2023-12-04T13:16:50;78265.47;;;16.94;nan
77626;BME280;66794;43.764;10.436;2023-12-04T13:19:36;78897.13;;;17.16;nan
77626;BME280;66794;43.764;10.436;2023-12-04T13:22:21;80485.22;;;17.68;nan
77626;BME280;66794;43.764;10.436;2023-12-04T13:25:08;79035.06;;;17.18;nan
77626;BME280;66794;43.764;10.436;2023-12-04T13:27:55;74043.16;;;16.73;nan
77626;BME280;66794;43.764;10.436;2023-12-04T13:30:41;77707.63;;;16.62;nan
77626;BME280;66794;43.764;10.436;2023-12-04T13:33:27;66906.28;;;15.01;nan
77626;BME280;66794;43.764;10.436;2023-12-04T13:36:13;69443.38;;;16.77;nan
77626;BME280;66794;43.764;10.436;2023-12-04T13:38:58;72552.59;;;16.28;nan
77626;BME280;66794;43.764;10.436;2023-12-04T13:41:45;80028.91;;;17.27;nan
77626;BME280;66794;43.764;10.436;2023-12-04T13:44:50;64710.38;;;17.70;nan
77626;BME280;66794;43.764;10.436;2023-12-04T13:47:37;80180.88;;;17.43;nan
77626;BME280;66794;43.764;10.436;2023-12-04T13:50:23;76952.28;;;17.04;nan
77626;BME280;66794;43.764;10.436;2023-12-04T13:53:09;70677.13;;;16.19;nan
77626;BME280;66794;43.764;10.436;2023-12-04T13:55:54;71701.03;;;16.28;nan
77626;BME280;66794;43.764;10.436;2023-12-04T13:58:40;64913.91;;;15.99;nan
77626;BME280;66794;43.764;10.436;2023-12-04T14:01:30;71163.47;;;16.01;nan
77626;BME280;66794;43.764;10.436;2023-12-04T14:04:16;76374.34;;;16.70;nan
77626;BME280;66794;43.764;10.436;2023-12-04T14:07:02;77576.00;;;16.82;nan
77626;BME280;66794;43.764;10.436;2023-12-04T14:09:48;78512.88;;;16.65;nan
77626;BME280;66794;43.764;10.436;2023-12-04T14:12:34;78369.38;;;16.54;nan
77626;BME280;66794;43.764;10.436;2023-12-04T14:15:19;77628.41;;;16.25;nan
77626;BME280;66794;43.764;10.436;2023-12-04T14:18:05;81503.16;;;16.63;nan
77626;BME280;66794;43.764;10.436;2023-12-04T14:20:51;83288.25;;;17.24;nan
77626;BME280;66794;43.764;10.436;2023-12-04T14:23:37;85816.34;;;17.38;nan
77626;BME280;66794;43.764;10.436;2023-12-04T14:26:23;82617.91;;;16.89;nan
77626;BME280;66794;43.764;10.436;2023-12-04T14:29:09;84128.63;;;16.95;nan
77626;BME280;66794;43.764;10.436;2023-12-04T14:31:55;79783.72;;;16.93;nan
77626;BME280;66794;43.764;10.436;2023-12-04T14:34:40;64585.66;;;16.42;nan
77626;BME280;66794;43.764;10.436;2023-12-04T14:37:26;85371.75;;;17.08;nan
77626;BME280;66794;43.764;10.436;2023-12-04T14:40:12;83568.03;;;16.38;nan
77626;BME280;66794;43.764;10.436;2023-12-04T14:42:59;88028.53;;;17.14;nan
77626;BME280;66794;43.764;10.436;2023-12-04T14:45:45;80503.16;;;15.93;nan
77626;BME280;66794;43.764;10.436;2023-12-04T14:48:30;85811.97;;;16.92;nan
77626;BME280;66794;43.764;10.436;2023-12-04T14:51:16;83059.16;;;15.97;nan
77626;BME280;66794;43.764;10.436;2023-12-04T14:54:02;88922.91;;;17.08;nan